sensor_id;sensor_type;location;lat;lon;timestamp;temperature;humidity
33988;DHT22;37428;53.580;-1.666;2023-02-01T00:01:27;5.20;83.00
33988;DHT22;37428;53.580;-1.666;2023-02-01T00:04:32;5.30;83.20
33988;DHT22;37428;53.580;-1.666;2023-02-01T00:07:36;5.30;83.60
33988;DHT22;37428;53.580;-1.666;2023-02-01T00:10:45;5.30;84.00
33988;DHT22;37428;53.580;-1.666;2023-02-01T00:14:26;5.30;84.20
33988;DHT22;37428;53.580;-1.666;2023-02-01T00:17:55;5.20;84.20
33988;DHT22;37428;53.580;-1.666;2023-02-01T00:21:11;5.20;83.80
33988;DHT22;37428;53.580;-1.666;2023-02-01T00:24:22;5.20;84.20
33988;DHT22;37428;53.580;-1.666;2023-02-01T00:27:30;5.10;84.50
33988;DHT22;37428;53.580;-1.666;2023-02-01T00:31:20;5.10;85.10
33988;DHT22;37428;53.580;-1.666;2023-02-01T00:34:26;5.10;85.30
33988;DHT22;37428;53.580;-1.666;2023-02-01T00:37:29;5.10;85.10
33988;DHT22;37428;53.580;-1.666;2023-02-01T00:40:31;5.10;84.60
33988;DHT22;37428;53.580;-1.666;2023-02-01T00:43:48;5.20;84.40
33988;DHT22;37428;53.580;-1.666;2023-02-01T00:50:59;5.20;84.00
33988;DHT22;37428;53.580;-1.666;2023-02-01T00:53:53;5.20;84.40
33988;DHT22;37428;53.580;-1.666;2023-02-01T00:57:00;5.20;86.10
33988;DHT22;37428;53.580;-1.666;2023-02-01T01:00:03;5.10;87.70
33988;DHT22;37428;53.580;-1.666;2023-02-01T01:03:05;5.00;88.40
33988;DHT22;37428;53.580;-1.666;2023-02-01T01:06:21;5.00;89.40
33988;DHT22;37428;53.580;-1.666;2023-02-01T01:09:24;4.90;89.70
33988;DHT22;37428;53.580;-1.666;2023-02-01T01:12:26;4.80;89.90
33988;DHT22;37428;53.580;-1.666;2023-02-01T01:15:28;4.80;89.70
33988;DHT22;37428;53.580;-1.666;2023-02-01T01:18:32;4.80;89.70
33988;DHT22;37428;53.580;-1.666;2023-02-01T01:21:35;4.80;89.30
33988;DHT22;37428;53.580;-1.666;2023-02-01T01:24:38;4.90;88.60
33988;DHT22;37428;53.580;-1.666;2023-02-01T01:27:40;4.90;88.30
33988;DHT22;37428;53.580;-1.666;2023-02-01T01:30:42;5.00;88.00
33988;DHT22;37428;53.580;-1.666;2023-02-01T01:33:48;5.00;88.00
33988;DHT22;37428;53.580;-1.666;2023-02-01T01:36:54;5.00;88.10
33988;DHT22;37428;53.580;-1.666;2023-02-01T01:39:56;4.90;88.10
33988;DHT22;37428;53.580;-1.666;2023-02-01T01:42:59;4.90;88.20
33988;DHT22;37428;53.580;-1.666;2023-02-01T01:46:01;4.90;88.20
33988;DHT22;37428;53.580;-1.666;2023-02-01T01:49:07;4.90;88.10
33988;DHT22;37428;53.580;-1.666;2023-02-01T01:52:12;5.00;88.50
33988;DHT22;37428;53.580;-1.666;2023-02-01T01:55:15;4.90;89.90
33988;DHT22;37428;53.580;-1.666;2023-02-01T01:58:21;4.90;90.80
33988;DHT22;37428;53.580;-1.666;2023-02-01T02:01:25;4.90;91.00
33988;DHT22;37428;53.580;-1.666;2023-02-01T02:04:29;4.90;90.20
33988;DHT22;37428;53.580;-1.666;2023-02-01T02:07:35;4.90;90.00
33988;DHT22;37428;53.580;-1.666;2023-02-01T02:10:38;5.00;89.30
33988;DHT22;37428;53.580;-1.666;2023-02-01T02:13:58;5.00;88.80
33988;DHT22;37428;53.580;-1.666;2023-02-01T02:17:22;5.00;89.20
33988;DHT22;37428;53.580;-1.666;2023-02-01T02:20:49;4.90;88.90
33988;DHT22;37428;53.580;-1.666;2023-02-01T02:27:48;4.90;87.90
33988;DHT22;37428;53.580;-1.666;2023-02-01T02:34:31;5.00;87.80
33988;DHT22;37428;53.580;-1.666;2023-02-01T02:37:40;5.00;87.40
33988;DHT22;37428;53.580;-1.666;2023-02-01T02:40:48;5.00;86.60
33988;DHT22;37428;53.580;-1.666;2023-02-01T02:43:57;5.00;86.30
33988;DHT22;37428;53.580;-1.666;2023-02-01T02:47:24;5.00;86.50
33988;DHT22;37428;53.580;-1.666;2023-02-01T02:50:32;5.00;86.70
33988;DHT22;37428;53.580;-1.666;2023-02-01T02:53:57;5.00;88.00
33988;DHT22;37428;53.580;-1.666;2023-02-01T02:57:35;5.00;88.60
33988;DHT22;37428;53.580;-1.666;2023-02-01T03:00:56;5.00;88.80
33988;DHT22;37428;53.580;-1.666;2023-02-01T03:04:16;5.00;88.00
33988;DHT22;37428;53.580;-1.666;2023-02-01T03:11:05;4.90;88.20
33988;DHT22;37428;53.580;-1.666;2023-02-01T03:14:08;4.90;88.60
33988;DHT22;37428;53.580;-1.666;2023-02-01T03:17:13;4.90;88.20
33988;DHT22;37428;53.580;-1.666;2023-02-01T03:20:19;5.00;87.60
33988;DHT22;37428;53.580;-1.666;2023-02-01T03:23:26;5.00;87.00
33988;DHT22;37428;53.580;-1.666;2023-02-01T03:26:34;5.00;86.70
33988;DHT22;37428;53.580;-1.666;2023-02-01T03:29:44;5.00;86.40
33988;DHT22;37428;53.580;-1.666;2023-02-01T03:32:51;5.00;87.00
33988;DHT22;37428;53.580;-1.666;2023-02-01T03:36:09;5.00;86.80
33988;DHT22;37428;53.580;-1.666;2023-02-01T03:39:16;5.00;86.80
33988;DHT22;37428;53.580;-1.666;2023-02-01T03:42:26;5.00;86.60
33988;DHT22;37428;53.580;-1.666;2023-02-01T03:45:35;5.00;85.30
33988;DHT22;37428;53.580;-1.666;2023-02-01T03:48:40;5.00;85.10
33988;DHT22;37428;53.580;-1.666;2023-02-01T03:51:42;5.00;84.00
33988;DHT22;37428;53.580;-1.666;2023-02-01T03:54:45;5.00;84.50
33988;DHT22;37428;53.580;-1.666;2023-02-01T03:57:53;5.00;84.40
33988;DHT22;37428;53.580;-1.666;2023-02-01T04:00:58;5.00;85.00
33988;DHT22;37428;53.580;-1.666;2023-02-01T04:04:01;5.00;85.00
33988;DHT22;37428;53.580;-1.666;2023-02-01T04:07:03;5.00;85.40
33988;DHT22;37428;53.580;-1.666;2023-02-01T04:10:06;5.00;84.90
33988;DHT22;37428;53.580;-1.666;2023-02-01T04:13:10;5.00;84.90
33988;DHT22;37428;53.580;-1.666;2023-02-01T04:16:12;4.90;85.40
33988;DHT22;37428;53.580;-1.666;2023-02-01T04:19:14;4.90;85.50
33988;DHT22;37428;53.580;-1.666;2023-02-01T04:22:17;4.80;85.60
33988;DHT22;37428;53.580;-1.666;2023-02-01T04:25:20;4.80;85.70
33988;DHT22;37428;53.580;-1.666;2023-02-01T04:28:23;4.80;85.50
33988;DHT22;37428;53.580;-1.666;2023-02-01T04:31:26;4.80;85.60
33988;DHT22;37428;53.580;-1.666;2023-02-01T04:34:30;4.80;85.70
33988;DHT22;37428;53.580;-1.666;2023-02-01T04:37:33;4.80;86.10
33988;DHT22;37428;53.580;-1.666;2023-02-01T04:40:35;4.90;86.10
33988;DHT22;37428;53.580;-1.666;2023-02-01T04:43:40;4.90;86.50
33988;DHT22;37428;53.580;-1.666;2023-02-01T04:46:42;4.90;86.50
33988;DHT22;37428;53.580;-1.666;2023-02-01T04:49:44;4.80;86.80
33988;DHT22;37428;53.580;-1.666;2023-02-01T04:52:46;4.90;86.90
33988;DHT22;37428;53.580;-1.666;2023-02-01T04:55:49;4.90;87.00
33988;DHT22;37428;53.580;-1.666;2023-02-01T04:58:53;4.90;86.80
33988;DHT22;37428;53.580;-1.666;2023-02-01T05:01:56;4.90;87.40
33988;DHT22;37428;53.580;-1.666;2023-02-01T05:05:03;4.90;87.40
33988;DHT22;37428;53.580;-1.666;2023-02-01T05:08:05;5.00;87.40
33988;DHT22;37428;53.580;-1.666;2023-02-01T05:11:07;5.00;87.50
33988;DHT22;37428;53.580;-1.666;2023-02-01T05:14:32;5.00;87.20
33988;DHT22;37428;53.580;-1.666;2023-02-01T05:17:33;5.10;87.10
33988;DHT22;37428;53.580;-1.666;2023-02-01T05:20:35;5.10;87.50
33988;DHT22;37428;53.580;-1.666;2023-02-01T05:23:37;5.20;87.10
33988;DHT22;37428;53.580;-1.666;2023-02-01T05:26:53;5.20;87.20
33988;DHT22;37428;53.580;-1.666;2023-02-01T05:29:56;5.20;86.50
33988;DHT22;37428;53.580;-1.666;2023-02-01T05:32:58;5.20;86.20
33988;DHT22;37428;53.580;-1.666;2023-02-01T05:36:01;5.20;86.50
33988;DHT22;37428;53.580;-1.666;2023-02-01T05:39:03;5.20;86.20
33988;DHT22;37428;53.580;-1.666;2023-02-01T05:42:05;5.20;85.50
33988;DHT22;37428;53.580;-1.666;2023-02-01T05:45:10;5.30;86.00
33988;DHT22;37428;53.580;-1.666;2023-02-01T05:48:12;5.30;86.00
33988;DHT22;37428;53.580;-1.666;2023-02-01T05:51:14;5.30;85.80
33988;DHT22;37428;53.580;-1.666;2023-02-01T05:54:17;5.30;85.60
33988;DHT22;37428;53.580;-1.666;2023-02-01T05:57:19;5.40;85.60
33988;DHT22;37428;53.580;-1.666;2023-02-01T06:00:23;5.30;86.10
33988;DHT22;37428;53.580;-1.666;2023-02-01T06:03:25;5.40;85.70
33988;DHT22;37428;53.580;-1.666;2023-02-01T06:06:41;5.40;86.00
33988;DHT22;37428;53.580;-1.666;2023-02-01T06:09:43;5.30;86.80
33988;DHT22;37428;53.580;-1.666;2023-02-01T06:12:46;5.30;87.80
33988;DHT22;37428;53.580;-1.666;2023-02-01T06:15:50;5.20;88.90
33988;DHT22;37428;53.580;-1.666;2023-02-01T06:18:52;5.20;89.70
33988;DHT22;37428;53.580;-1.666;2023-02-01T06:21:54;5.20;89.50
33988;DHT22;37428;53.580;-1.666;2023-02-01T06:24:56;5.20;89.70
33988;DHT22;37428;53.580;-1.666;2023-02-01T06:28:00;5.20;89.80
33988;DHT22;37428;53.580;-1.666;2023-02-01T06:31:07;5.20;90.00
33988;DHT22;37428;53.580;-1.666;2023-02-01T06:34:09;5.30;89.70
33988;DHT22;37428;53.580;-1.666;2023-02-01T06:37:14;5.30;89.50
33988;DHT22;37428;53.580;-1.666;2023-02-01T06:40:16;5.30;89.50
33988;DHT22;37428;53.580;-1.666;2023-02-01T06:43:39;5.30;90.10
33988;DHT22;37428;53.580;-1.666;2023-02-01T06:47:00;5.30;90.60
33988;DHT22;37428;53.580;-1.666;2023-02-01T06:50:09;5.30;90.90
33988;DHT22;37428;53.580;-1.666;2023-02-01T06:53:11;5.30;90.90
33988;DHT22;37428;53.580;-1.666;2023-02-01T06:56:33;5.30;90.50
33988;DHT22;37428;53.580;-1.666;2023-02-01T06:59:45;5.40;90.00
33988;DHT22;37428;53.580;-1.666;2023-02-01T07:02:50;5.30;89.80
33988;DHT22;37428;53.580;-1.666;2023-02-01T07:06:10;5.40;89.80
33988;DHT22;37428;53.580;-1.666;2023-02-01T07:09:12;5.40;89.60
33988;DHT22;37428;53.580;-1.666;2023-02-01T07:12:22;5.50;89.60
33988;DHT22;37428;53.580;-1.666;2023-02-01T07:15:38;5.50;89.80
33988;DHT22;37428;53.580;-1.666;2023-02-01T07:18:42;5.50;90.30
33988;DHT22;37428;53.580;-1.666;2023-02-01T07:21:44;5.40;91.10
33988;DHT22;37428;53.580;-1.666;2023-02-01T07:24:52;5.40;91.40
33988;DHT22;37428;53.580;-1.666;2023-02-01T07:27:54;5.40;91.20
33988;DHT22;37428;53.580;-1.666;2023-02-01T07:31:02;5.40;91.20
33988;DHT22;37428;53.580;-1.666;2023-02-01T07:34:05;5.40;91.60
33988;DHT22;37428;53.580;-1.666;2023-02-01T07:37:08;5.40;91.90
33988;DHT22;37428;53.580;-1.666;2023-02-01T07:40:13;5.40;92.00
33988;DHT22;37428;53.580;-1.666;2023-02-01T07:43:15;5.40;92.40
33988;DHT22;37428;53.580;-1.666;2023-02-01T07:46:17;5.40;92.70
33988;DHT22;37428;53.580;-1.666;2023-02-01T07:49:21;5.30;93.00
33988;DHT22;37428;53.580;-1.666;2023-02-01T07:52:23;5.30;93.40
33988;DHT22;37428;53.580;-1.666;2023-02-01T07:55:25;5.30;93.00
33988;DHT22;37428;53.580;-1.666;2023-02-01T07:58:30;5.40;92.90
33988;DHT22;37428;53.580;-1.666;2023-02-01T08:01:56;5.40;93.00
33988;DHT22;37428;53.580;-1.666;2023-02-01T08:04:59;5.30;93.10
33988;DHT22;37428;53.580;-1.666;2023-02-01T08:08:01;5.40;93.50
33988;DHT22;37428;53.580;-1.666;2023-02-01T08:11:05;5.40;93.60
33988;DHT22;37428;53.580;-1.666;2023-02-01T08:14:08;5.40;93.50
33988;DHT22;37428;53.580;-1.666;2023-02-01T08:17:10;5.50;93.80
33988;DHT22;37428;53.580;-1.666;2023-02-01T08:20:14;5.50;93.70
33988;DHT22;37428;53.580;-1.666;2023-02-01T08:23:17;5.50;93.80
33988;DHT22;37428;53.580;-1.666;2023-02-01T08:26:21;5.50;93.50
33988;DHT22;37428;53.580;-1.666;2023-02-01T08:29:23;5.50;93.50
33988;DHT22;37428;53.580;-1.666;2023-02-01T08:32:25;5.50;93.70
33988;DHT22;37428;53.580;-1.666;2023-02-01T08:35:29;5.60;93.80
33988;DHT22;37428;53.580;-1.666;2023-02-01T08:38:46;5.60;93.70
33988;DHT22;37428;53.580;-1.666;2023-02-01T08:41:48;5.60;93.10
33988;DHT22;37428;53.580;-1.666;2023-02-01T08:45:10;5.60;92.80
33988;DHT22;37428;53.580;-1.666;2023-02-01T08:48:13;5.60;92.80
33988;DHT22;37428;53.580;-1.666;2023-02-01T08:51:18;5.70;92.10
33988;DHT22;37428;53.580;-1.666;2023-02-01T08:54:21;5.80;92.00
33988;DHT22;37428;53.580;-1.666;2023-02-01T08:57:23;5.90;91.70
33988;DHT22;37428;53.580;-1.666;2023-02-01T09:00:25;5.90;91.60
33988;DHT22;37428;53.580;-1.666;2023-02-01T09:03:27;5.90;91.20
33988;DHT22;37428;53.580;-1.666;2023-02-01T09:06:30;6.00;91.70
33988;DHT22;37428;53.580;-1.666;2023-02-01T09:09:33;5.90;92.20
33988;DHT22;37428;53.580;-1.666;2023-02-01T09:12:35;5.90;92.40
33988;DHT22;37428;53.580;-1.666;2023-02-01T09:15:38;5.90;93.20
33988;DHT22;37428;53.580;-1.666;2023-02-01T09:18:40;5.90;92.80
33988;DHT22;37428;53.580;-1.666;2023-02-01T09:21:57;5.90;92.80
33988;DHT22;37428;53.580;-1.666;2023-02-01T09:24:59;5.90;92.50
33988;DHT22;37428;53.580;-1.666;2023-02-01T09:28:04;6.00;92.60
33988;DHT22;37428;53.580;-1.666;2023-02-01T09:31:21;6.00;92.10
33988;DHT22;37428;53.580;-1.666;2023-02-01T09:34:23;6.10;91.70
33988;DHT22;37428;53.580;-1.666;2023-02-01T09:37:29;6.10;91.50
33988;DHT22;37428;53.580;-1.666;2023-02-01T09:40:33;6.20;91.70
33988;DHT22;37428;53.580;-1.666;2023-02-01T09:43:43;6.10;91.90
33988;DHT22;37428;53.580;-1.666;2023-02-01T09:46:49;6.10;92.00
33988;DHT22;37428;53.580;-1.666;2023-02-01T09:49:59;6.10;92.80
33988;DHT22;37428;53.580;-1.666;2023-02-01T09:53:06;6.10;92.70
33988;DHT22;37428;53.580;-1.666;2023-02-01T09:56:13;6.10;92.40
33988;DHT22;37428;53.580;-1.666;2023-02-01T09:59:26;6.20;92.30
33988;DHT22;37428;53.580;-1.666;2023-02-01T10:02:35;6.30;91.70
33988;DHT22;37428;53.580;-1.666;2023-02-01T10:05:52;6.30;91.70
33988;DHT22;37428;53.580;-1.666;2023-02-01T10:09:15;6.40;91.80
33988;DHT22;37428;53.580;-1.666;2023-02-01T10:12:44;6.40;91.70
33988;DHT22;37428;53.580;-1.666;2023-02-01T10:15:58;6.60;92.00
33988;DHT22;37428;53.580;-1.666;2023-02-01T10:19:17;6.60;91.40
33988;DHT22;37428;53.580;-1.666;2023-02-01T10:22:32;6.60;92.00
33988;DHT22;37428;53.580;-1.666;2023-02-01T10:25:41;6.60;92.30
33988;DHT22;37428;53.580;-1.666;2023-02-01T10:28:50;6.50;92.80
33988;DHT22;37428;53.580;-1.666;2023-02-01T10:31:52;6.60;92.90
33988;DHT22;37428;53.580;-1.666;2023-02-01T10:34:57;6.60;93.10
33988;DHT22;37428;53.580;-1.666;2023-02-01T10:38:00;6.70;93.20
33988;DHT22;37428;53.580;-1.666;2023-02-01T10:41:12;6.70;92.70
33988;DHT22;37428;53.580;-1.666;2023-02-01T10:44:17;6.70;92.40
33988;DHT22;37428;53.580;-1.666;2023-02-01T10:47:19;6.60;92.20
33988;DHT22;37428;53.580;-1.666;2023-02-01T10:50:33;6.70;92.50
33988;DHT22;37428;53.580;-1.666;2023-02-01T10:53:42;6.90;91.80
33988;DHT22;37428;53.580;-1.666;2023-02-01T10:56:48;7.00;90.90
33988;DHT22;37428;53.580;-1.666;2023-02-01T10:59:50;7.10;90.40
33988;DHT22;37428;53.580;-1.666;2023-02-01T11:02:53;7.10;90.00
33988;DHT22;37428;53.580;-1.666;2023-02-01T11:05:57;7.10;90.30
33988;DHT22;37428;53.580;-1.666;2023-02-01T11:09:00;7.10;89.60
33988;DHT22;37428;53.580;-1.666;2023-02-01T11:12:04;7.00;89.70
33988;DHT22;37428;53.580;-1.666;2023-02-01T11:15:18;6.90;90.90
33988;DHT22;37428;53.580;-1.666;2023-02-01T11:18:26;6.90;91.70
33988;DHT22;37428;53.580;-1.666;2023-02-01T11:21:29;6.80;91.80
33988;DHT22;37428;53.580;-1.666;2023-02-01T11:24:32;6.80;92.00
33988;DHT22;37428;53.580;-1.666;2023-02-01T11:27:37;6.80;92.70
33988;DHT22;37428;53.580;-1.666;2023-02-01T11:30:41;6.80;92.40
33988;DHT22;37428;53.580;-1.666;2023-02-01T11:33:49;6.80;92.30
33988;DHT22;37428;53.580;-1.666;2023-02-01T11:36:53;6.90;92.00
33988;DHT22;37428;53.580;-1.666;2023-02-01T11:39:58;6.90;92.00
33988;DHT22;37428;53.580;-1.666;2023-02-01T11:43:12;6.90;91.50
33988;DHT22;37428;53.580;-1.666;2023-02-01T11:46:30;7.00;90.90
33988;DHT22;37428;53.580;-1.666;2023-02-01T11:49:32;6.90;90.60
33988;DHT22;37428;53.580;-1.666;2023-02-01T11:52:49;6.90;90.30
33988;DHT22;37428;53.580;-1.666;2023-02-01T11:56:05;6.90;89.50
33988;DHT22;37428;53.580;-1.666;2023-02-01T11:59:22;6.90;89.30
33988;DHT22;37428;53.580;-1.666;2023-02-01T12:02:54;6.90;89.30
33988;DHT22;37428;53.580;-1.666;2023-02-01T12:06:01;6.90;89.30
33988;DHT22;37428;53.580;-1.666;2023-02-01T12:12:51;7.00;89.20
33988;DHT22;37428;53.580;-1.666;2023-02-01T12:16:08;7.00;89.00
33988;DHT22;37428;53.580;-1.666;2023-02-01T12:19:27;7.00;89.10
33988;DHT22;37428;53.580;-1.666;2023-02-01T12:22:40;7.00;89.50
33988;DHT22;37428;53.580;-1.666;2023-02-01T12:26:00;6.90;90.10
33988;DHT22;37428;53.580;-1.666;2023-02-01T12:29:20;6.90;90.10
33988;DHT22;37428;53.580;-1.666;2023-02-01T12:32:37;6.90;89.80
33988;DHT22;37428;53.580;-1.666;2023-02-01T12:35:59;6.90;90.30
33988;DHT22;37428;53.580;-1.666;2023-02-01T12:39:14;6.90;90.90
33988;DHT22;37428;53.580;-1.666;2023-02-01T12:42:21;6.90;91.30
33988;DHT22;37428;53.580;-1.666;2023-02-01T12:45:30;6.90;91.80
33988;DHT22;37428;53.580;-1.666;2023-02-01T12:48:38;6.90;91.60
33988;DHT22;37428;53.580;-1.666;2023-02-01T12:51:46;6.90;91.60
33988;DHT22;37428;53.580;-1.666;2023-02-01T12:54:54;6.80;91.70
33988;DHT22;37428;53.580;-1.666;2023-02-01T12:58:03;6.80;92.00
33988;DHT22;37428;53.580;-1.666;2023-02-01T13:01:11;6.80;92.10
33988;DHT22;37428;53.580;-1.666;2023-02-01T13:04:20;6.80;92.10
33988;DHT22;37428;53.580;-1.666;2023-02-01T13:07:29;6.80;92.70
33988;DHT22;37428;53.580;-1.666;2023-02-01T13:10:37;6.80;93.00
33988;DHT22;37428;53.580;-1.666;2023-02-01T13:13:49;6.80;92.10
33988;DHT22;37428;53.580;-1.666;2023-02-01T13:17:00;6.90;92.20
33988;DHT22;37428;53.580;-1.666;2023-02-01T13:20:10;6.80;93.10
33988;DHT22;37428;53.580;-1.666;2023-02-01T13:23:25;6.80;93.80
33988;DHT22;37428;53.580;-1.666;2023-02-01T13:26:27;6.70;93.90
33988;DHT22;37428;53.580;-1.666;2023-02-01T13:29:31;6.70;93.80
33988;DHT22;37428;53.580;-1.666;2023-02-01T13:33:17;6.70;93.80
33988;DHT22;37428;53.580;-1.666;2023-02-01T13:36:31;6.70;93.20
33988;DHT22;37428;53.580;-1.666;2023-02-01T13:39:47;6.70;92.90
33988;DHT22;37428;53.580;-1.666;2023-02-01T13:42:52;6.80;91.80
33988;DHT22;37428;53.580;-1.666;2023-02-01T13:45:57;6.80;90.70
33988;DHT22;37428;53.580;-1.666;2023-02-01T13:49:05;6.80;90.70
33988;DHT22;37428;53.580;-1.666;2023-02-01T13:52:23;6.80;90.10
33988;DHT22;37428;53.580;-1.666;2023-02-01T13:55:32;6.90;89.70
33988;DHT22;37428;53.580;-1.666;2023-02-01T13:58:36;6.90;89.80
33988;DHT22;37428;53.580;-1.666;2023-02-01T14:01:38;6.90;89.20
33988;DHT22;37428;53.580;-1.666;2023-02-01T14:04:47;7.00;89.40
33988;DHT22;37428;53.580;-1.666;2023-02-01T14:08:10;7.00;89.80
33988;DHT22;37428;53.580;-1.666;2023-02-01T14:11:41;7.00;90.70
33988;DHT22;37428;53.580;-1.666;2023-02-01T14:14:45;7.00;91.30
33988;DHT22;37428;53.580;-1.666;2023-02-01T14:17:50;7.00;91.50
33988;DHT22;37428;53.580;-1.666;2023-02-01T14:21:13;6.90;91.40
33988;DHT22;37428;53.580;-1.666;2023-02-01T14:24:24;6.90;91.30
33988;DHT22;37428;53.580;-1.666;2023-02-01T14:27:29;6.90;91.70
33988;DHT22;37428;53.580;-1.666;2023-02-01T14:30:32;6.90;92.80
33988;DHT22;37428;53.580;-1.666;2023-02-01T14:33:34;6.80;94.20
33988;DHT22;37428;53.580;-1.666;2023-02-01T14:36:42;6.80;95.00
33988;DHT22;37428;53.580;-1.666;2023-02-01T14:39:54;6.80;95.60
33988;DHT22;37428;53.580;-1.666;2023-02-01T14:42:57;6.70;96.70
33988;DHT22;37428;53.580;-1.666;2023-02-01T14:45:59;6.70;97.00
33988;DHT22;37428;53.580;-1.666;2023-02-01T14:49:01;6.60;96.90
33988;DHT22;37428;53.580;-1.666;2023-02-01T14:52:09;6.60;95.90
33988;DHT22;37428;53.580;-1.666;2023-02-01T14:55:17;6.70;95.70
33988;DHT22;37428;53.580;-1.666;2023-02-01T14:58:30;6.80;95.60
33988;DHT22;37428;53.580;-1.666;2023-02-01T15:01:36;6.80;95.80
33988;DHT22;37428;53.580;-1.666;2023-02-01T15:04:41;6.80;96.30
33988;DHT22;37428;53.580;-1.666;2023-02-01T15:07:44;6.70;96.60
33988;DHT22;37428;53.580;-1.666;2023-02-01T15:10:50;6.80;96.70
33988;DHT22;37428;53.580;-1.666;2023-02-01T15:13:54;6.70;95.80
33988;DHT22;37428;53.580;-1.666;2023-02-01T15:16:57;6.80;95.60
33988;DHT22;37428;53.580;-1.666;2023-02-01T15:20:01;6.80;95.70
33988;DHT22;37428;53.580;-1.666;2023-02-01T15:23:05;6.80;95.30
33988;DHT22;37428;53.580;-1.666;2023-02-01T15:26:09;6.80;95.30
33988;DHT22;37428;53.580;-1.666;2023-02-01T15:29:12;6.80;94.70
33988;DHT22;37428;53.580;-1.666;2023-02-01T15:32:28;6.80;94.30
33988;DHT22;37428;53.580;-1.666;2023-02-01T15:35:37;6.80;94.40
33988;DHT22;37428;53.580;-1.666;2023-02-01T15:38:42;6.80;94.70
33988;DHT22;37428;53.580;-1.666;2023-02-01T15:41:49;6.80;94.40
33988;DHT22;37428;53.580;-1.666;2023-02-01T15:44:51;6.80;94.70
33988;DHT22;37428;53.580;-1.666;2023-02-01T15:47:56;6.80;95.40
33988;DHT22;37428;53.580;-1.666;2023-02-01T15:50:58;6.70;95.80
33988;DHT22;37428;53.580;-1.666;2023-02-01T15:54:02;6.70;95.90
33988;DHT22;37428;53.580;-1.666;2023-02-01T15:57:09;6.70;95.90
33988;DHT22;37428;53.580;-1.666;2023-02-01T16:00:21;6.70;95.40
33988;DHT22;37428;53.580;-1.666;2023-02-01T16:03:28;6.70;94.70
33988;DHT22;37428;53.580;-1.666;2023-02-01T16:06:34;6.70;95.00
33988;DHT22;37428;53.580;-1.666;2023-02-01T16:09:40;6.70;94.90
33988;DHT22;37428;53.580;-1.666;2023-02-01T16:12:50;6.70;94.90
33988;DHT22;37428;53.580;-1.666;2023-02-01T16:15:58;6.70;95.10
33988;DHT22;37428;53.580;-1.666;2023-02-01T16:19:00;6.80;94.80
33988;DHT22;37428;53.580;-1.666;2023-02-01T16:22:02;6.70;95.00
33988;DHT22;37428;53.580;-1.666;2023-02-01T16:25:05;6.70;95.20
33988;DHT22;37428;53.580;-1.666;2023-02-01T16:28:08;6.70;95.50
33988;DHT22;37428;53.580;-1.666;2023-02-01T16:31:12;6.70;95.80
33988;DHT22;37428;53.580;-1.666;2023-02-01T16:34:19;6.70;96.20
33988;DHT22;37428;53.580;-1.666;2023-02-01T16:37:24;6.70;96.90
33988;DHT22;37428;53.580;-1.666;2023-02-01T16:40:28;6.70;97.20
33988;DHT22;37428;53.580;-1.666;2023-02-01T16:43:32;6.70;97.20
33988;DHT22;37428;53.580;-1.666;2023-02-01T16:46:38;6.70;97.30
33988;DHT22;37428;53.580;-1.666;2023-02-01T16:49:42;6.70;97.40
33988;DHT22;37428;53.580;-1.666;2023-02-01T16:52:44;6.70;97.00
33988;DHT22;37428;53.580;-1.666;2023-02-01T16:55:47;6.70;96.60
33988;DHT22;37428;53.580;-1.666;2023-02-01T16:58:51;6.80;96.10
33988;DHT22;37428;53.580;-1.666;2023-02-01T17:01:54;6.80;96.00
33988;DHT22;37428;53.580;-1.666;2023-02-01T17:04:57;6.80;95.60
33988;DHT22;37428;53.580;-1.666;2023-02-01T17:08:05;6.80;95.70
33988;DHT22;37428;53.580;-1.666;2023-02-01T17:11:10;6.80;95.60
33988;DHT22;37428;53.580;-1.666;2023-02-01T17:14:16;6.80;96.00
33988;DHT22;37428;53.580;-1.666;2023-02-01T17:17:20;6.80;96.50
33988;DHT22;37428;53.580;-1.666;2023-02-01T17:20:24;6.80;96.90
33988;DHT22;37428;53.580;-1.666;2023-02-01T17:23:28;6.80;97.30
33988;DHT22;37428;53.580;-1.666;2023-02-01T17:26:31;6.80;97.10
33988;DHT22;37428;53.580;-1.666;2023-02-01T17:29:35;6.80;96.60
33988;DHT22;37428;53.580;-1.666;2023-02-01T17:32:37;6.80;96.90
33988;DHT22;37428;53.580;-1.666;2023-02-01T17:35:40;6.80;96.70
33988;DHT22;37428;53.580;-1.666;2023-02-01T17:38:42;6.80;96.90
33988;DHT22;37428;53.580;-1.666;2023-02-01T17:41:45;6.80;96.80
33988;DHT22;37428;53.580;-1.666;2023-02-01T17:44:49;6.80;96.90
33988;DHT22;37428;53.580;-1.666;2023-02-01T17:47:54;6.80;97.00
33988;DHT22;37428;53.580;-1.666;2023-02-01T17:50:56;6.80;96.40
33988;DHT22;37428;53.580;-1.666;2023-02-01T17:53:59;6.80;96.30
33988;DHT22;37428;53.580;-1.666;2023-02-01T17:57:01;6.80;95.80
33988;DHT22;37428;53.580;-1.666;2023-02-01T18:00:06;6.80;95.60
33988;DHT22;37428;53.580;-1.666;2023-02-01T18:03:19;6.80;95.10
33988;DHT22;37428;53.580;-1.666;2023-02-01T18:06:25;6.90;94.40
33988;DHT22;37428;53.580;-1.666;2023-02-01T18:09:27;6.90;93.40
33988;DHT22;37428;53.580;-1.666;2023-02-01T18:12:31;6.90;93.30
33988;DHT22;37428;53.580;-1.666;2023-02-01T18:15:35;6.90;93.10
33988;DHT22;37428;53.580;-1.666;2023-02-01T18:18:38;6.90;93.20
33988;DHT22;37428;53.580;-1.666;2023-02-01T18:21:42;6.90;92.70
33988;DHT22;37428;53.580;-1.666;2023-02-01T18:24:44;6.90;92.90
33988;DHT22;37428;53.580;-1.666;2023-02-01T18:27:47;6.90;93.30
33988;DHT22;37428;53.580;-1.666;2023-02-01T18:30:51;6.80;93.30
33988;DHT22;37428;53.580;-1.666;2023-02-01T18:33:55;6.90;93.60
33988;DHT22;37428;53.580;-1.666;2023-02-01T18:36:57;6.80;93.70
33988;DHT22;37428;53.580;-1.666;2023-02-01T18:40:00;6.80;93.60
33988;DHT22;37428;53.580;-1.666;2023-02-01T18:43:02;6.80;94.00
33988;DHT22;37428;53.580;-1.666;2023-02-01T18:46:07;6.90;94.00
33988;DHT22;37428;53.580;-1.666;2023-02-01T18:49:10;6.90;93.90
33988;DHT22;37428;53.580;-1.666;2023-02-01T18:52:17;6.90;93.80
33988;DHT22;37428;53.580;-1.666;2023-02-01T18:55:19;6.80;93.90
33988;DHT22;37428;53.580;-1.666;2023-02-01T18:58:22;6.90;94.10
33988;DHT22;37428;53.580;-1.666;2023-02-01T19:01:27;6.80;93.80
33988;DHT22;37428;53.580;-1.666;2023-02-01T19:04:29;6.80;93.80
33988;DHT22;37428;53.580;-1.666;2023-02-01T19:07:32;6.80;94.30
33988;DHT22;37428;53.580;-1.666;2023-02-01T19:10:34;6.80;94.20
33988;DHT22;37428;53.580;-1.666;2023-02-01T19:13:38;6.80;94.20
33988;DHT22;37428;53.580;-1.666;2023-02-01T19:16:42;6.80;93.90
33988;DHT22;37428;53.580;-1.666;2023-02-01T19:19:44;6.70;93.80
33988;DHT22;37428;53.580;-1.666;2023-02-01T19:22:48;6.80;94.20
33988;DHT22;37428;53.580;-1.666;2023-02-01T19:25:50;6.80;94.60
33988;DHT22;37428;53.580;-1.666;2023-02-01T19:28:52;6.80;95.50
33988;DHT22;37428;53.580;-1.666;2023-02-01T19:31:56;6.80;95.60
33988;DHT22;37428;53.580;-1.666;2023-02-01T19:34:58;6.70;95.90
33988;DHT22;37428;53.580;-1.666;2023-02-01T19:38:00;6.70;95.70
33988;DHT22;37428;53.580;-1.666;2023-02-01T19:41:02;6.70;95.80
33988;DHT22;37428;53.580;-1.666;2023-02-01T19:44:04;6.80;95.60
33988;DHT22;37428;53.580;-1.666;2023-02-01T19:47:08;6.80;95.20
33988;DHT22;37428;53.580;-1.666;2023-02-01T19:50:17;6.90;95.50
33988;DHT22;37428;53.580;-1.666;2023-02-01T19:53:19;6.80;95.50
33988;DHT22;37428;53.580;-1.666;2023-02-01T19:56:24;6.90;96.00
33988;DHT22;37428;53.580;-1.666;2023-02-01T19:59:26;6.80;96.70